Terminal Aerodrome Forecast
Issued by NWS Wilmington, OH

Current Version | Previous Version | Text Only | Print | Product List | Glossary On
Versions: 1 2 3 4 5 6 7 8 9 10 11 12 13 14 15 16 17 18 19 20 21 22 23 24 25 26 27 28 29 30 31 32 33 34 35 36 37 38 39 40 41 42
789 FTUS41 KILN 161132 TAFCVG TAF KCVG 161132Z 1612/1718 23005KT P6SM SCT060 FM161500 30008KT P6SM SCT050 FM162300 34007KT P6SM FEW050 FM170400 04006KT P6SM FEW050 FM171200 04005KT P6SM BKN015 FM171500 05006KT P6SM BKN025 FM171700 05006KT P6SM SCT035=

USA.gov is the U.S. government's official web portal to all federal, state and local government web resources and services.